OMRK/RKT METAR and TAF weather

Enter ICAO airport designator
Station Type Date Time Source
OMRK METAR 2019/06/27 09:00 UTC NOAA

OMRK 270900Z 33011KT 5000 DU NSC 40/24 Q0999 A2953


Station Type Date Time Source
OMRK Decoded METAR 2019/06/27 09:00 UTC NOAA

Ras Al Khaimah International Airport, United Arab Emirates (OMRK) 25-37N 055-56E 31M
Jun 27, 2019 - 05:00 AM EDT / 2019.06.27 0900 UTC
Wind: from the NNW (330 degrees) at 13 MPH (11 KT):0
Visibility: 3 mile(s):0
Weather: widespread dust
Temperature: 104 F (40 C)
Heat index: 118.9 F (48.3 C):1
Dew Point: 75 F (24 C)
Relative Humidity: 40%
Pressure (altimeter): 29.53 in. Hg (1000 hPa)
ob: OMRK 270900Z 33011KT 5000 DU NSC 40/24 Q0999 A2953
cycle: 9

Station Type Date Time Source
OMRK TAF 2019/06/27 06:03 UTC NOAA

TAF OMRK 270458Z 2706/2812 VRB02KT 7000 NSC
BECMG 2707/2709 33013KT
BECMG 2715/2717 VRB02KT
BECMG 2803/2805 20010KT
BECMG 2807/2809 30015KT

Example: see airport list